Tiempo atmosférico en la estación meteorológica de Garrucha, Puerto, Almería (12 m.)

Fecha
DESCASC
Temp. máxima en grados centígrados (hora)
DESCASC
Temp. mínima en grados centígrados (hora)
DESCASC
Temp. media en grados centígrados
DESCASC
Racha de viento máxima en m/sg (hora)
DESCASC
Velocidad máxima media en intervalos de 10 minutos(hora)
DESCASC
Precipitaciones diarias en mm
DESCASC
Precipitaciones de 00:00 a 06:00 en mm
DESCASC
Precipitaciones de 06:00 a 12:00 en mm
DESCASC
Precipitaciones de 12:00 a 18:00 en mm
DESCASC
Precipitaciones de 18:00 a 24:00 en mm
DESCASC
23-11-2017 21.1 (11:20) 8.8 (06:20) 15 8.89 (14:30) 8.06 (14:30) 0 0 0 0 0
22-11-2017 20 (12:20) 8.6 (08:10) 14.3 6.94 (17:50) 5.83 (17:10) 0 0 0 0 0
21-11-2017 20.4 (11:40) 9.6 (08:10) 15 7.5 (14:40) 6.39 (14:30) 0 0 0 0 0
20-11-2017 21.1 (12:00) 9.6 (06:10) 15.4 6.67 (07:50) 5.28 (07:50) 0 0 0 0 0
19-11-2017 20 (14:00) 9.3 (00:00) 14.7 6.94 (08:10) 5.83 (08:10) 0 0 0 0 0
18-11-2017 18.8 (11:40) 9.1 (00:00) 13.9 7.78 (15:50) 5.83 (15:30) 0 0 0 0 0
17-11-2017 18.9 (12:00) 8.9 (00:00) 13.9 7.22 (15:50) 5.83 (15:10) 0 0 0 0 0
16-11-2017 18.4 (11:40) 8.7 (00:00) 13.5 7.22 (15:20) 5.83 (14:50) 0 0 0 0 0
15-11-2017 18.4 (11:50) 8.3 (00:00) 13.3 9.17 (16:00) 7.5 (15:10) 0 0 0 0 0
14-11-2017 16.7 (16:00) 7.7 (00:00) 12.2 7.22 (14:10) 5.28 (23:59) 0 0 0 0 0
13-11-2017 21.4 (10:30) 14.6 (00:00) 18 11.11 (15:00) 8.06 (13:30) 0 0 0 0 0
12-11-2017 22.3 (17:30) 12 (00:00) 17.1 8.33 (14:40) 6.94 (15:10) 0 0 0 0 0
11-11-2017 20.5 (11:20) 12.2 (00:00) 16.3 8.06 (15:50) 7.22 (15:50) 0 0 0 0 0
10-11-2017 18.1 (13:20) 11 (00:00) 14.6 9.72 (10:40) 7.22 (23:10) 0 0 0 0 0
09-11-2017 18.2 (12:50) 11.4 (00:00) 14.8 11.11 (12:00) 8.33 (14:10) 0 0 0 0 0
08-11-2017 20.3 (11:30) 10.2 (00:00) 15.2 10 (16:40) 8.89 (16:50) 0 0 0 0 0
07-11-2017 18.7 (11:40) 9.7 (00:00) 14.2 13.06 (17:20) 10.83 (17:10) 0 0 0 0 0
06-11-2017 21.4 (12:30) 13.3 (00:00) 17.3 11.94 (13:50) 10 (13:50) 0 0 0 0 0
05-11-2017 24.1 (13:30) 16 (00:00) 20.1 15 (16:00) 9.17 (16:00) 0 0 0 0 0
04-11-2017 22.5 (17:30) 17.1 (00:00) 19.8 10.28 (12:20) 8.06 (04:30) 0.8 0 0 0.8 0
03-11-2017 21.7 (14:10) 15.2 (00:00) 18.5 6.94 (22:30) 5.83 (22:40) 0 0 0 0 0
02-11-2017 22.4 (13:10) 15.6 (08:00) 19 6.11 (14:30) 4.72 (15:20) 0 0 0 0 0
01-11-2017 22.8 (13:10) 15.9 (00:00) 19.3 7.22 (16:40) 5.83 (16:40) 0 0 0 0 0
31-10-2017 23 (12:00) 14.9 (00:00) 18.9 7.5 (14:50) 6.67 (14:50) 0 0 0 0 0
30-10-2017 22.9 (11:20) 15.3 (00:00) 19.1 7.5 (14:40) 6.39 (16:10) 0 0 0 0 0
29-10-2017 23.9 (11:50) 17 (00:00) 20.4 6.67 (15:20) 5.83 (15:20) 0 0 0 0 0
28-10-2017 23.5 (14:10) 15.9 (00:00) 19.7 6.39 (12:10) 4.72 (18:10) 0 0 0 0 0
27-10-2017 23.7 (12:20) 14.1 (00:00) 18.9 6.39 (08:00) 5 (02:10) 0 0 0 0 0
26-10-2017 24.5 (13:20) 14.2 (00:00) 19.3 7.22 (05:50) 5.83 (05:50) 0 0 0 0 0

Gráficas

Temp. máximas Temp. mínimas Temp. medias Precipitaciones Rachas de viento máximas Velocidades máximas media en intervalos de 10 minutos

Datos horarios

Fecha y hora oficial Temperatura (ºC) Velocidad del viento (km/h) Dirección del viento Racha (km/h) Dirección de racha Precipitación (mm) Presión (hPa) Tendencia (hPa) Humedad (%)
2017-11-24 23:00:00 14.5 6 Oeste 22 Sudoeste 0 -- -- 66
2017-11-24 22:00:00 15.3 12 Oeste 15 Oeste 0 -- -- 68
2017-11-24 21:00:00 15 9 Noroeste 17 Oeste 0 -- -- 75
2017-11-24 20:00:00 16.3 8 Noroeste 13 Noroeste 0 -- -- 72
2017-11-24 19:00:00 18.3 9 Norte 14 Norte 0 -- -- 78
2017-11-24 18:00:00 18.5 5 Oeste 21 Sur 0 -- -- 70
2017-11-24 17:00:00 19.2 22 Sur 31 Sur 0 -- -- 73
2017-11-24 16:00:00 19.2 22 Sudeste 28 Sur 0 -- -- 67
2017-11-24 15:00:00 18.9 16 Sudeste 21 Sudeste 0 -- -- 71
2017-11-24 14:00:00 18.8 17 Sudeste 20 Sudeste 0 -- -- 76
2017-11-24 13:00:00 18.2 13 Sudeste 15 Sudeste 0 -- -- 69
2017-11-24 12:00:00 19.8 6 Este 9 Este 0 -- -- 48
2017-11-24 11:00:00 18.2 4 Oeste 10 Oeste 0 -- -- 36
2017-11-24 10:00:00 15.1 5 Noroeste 10 Oeste 0 -- -- 45
2017-11-24 09:00:00 13.4 6 Oeste 14 Oeste 0 -- -- 45
2017-11-24 08:00:00 12.7 13 Oeste 17 Oeste 0 -- -- 46
2017-11-24 07:00:00 13.3 4 Oeste 12 Oeste 0 -- -- 46
2017-11-24 06:00:00 11.6 3 Oeste 11 Oeste 0 -- -- 53
2017-11-24 05:00:00 12.8 5 Oeste 18 Oeste 0 -- -- 49
2017-11-24 04:00:00 13.5 4 Oeste 16 Oeste 0 -- -- 53
2017-11-24 03:00:00 13.4 8 Noroeste 12 Noroeste 0 -- -- 50
2017-11-24 02:00:00 14.4 3 Noroeste 10 Oeste 0 -- -- 48
2017-11-24 01:00:00 14.9 9 Oeste 13 Oeste 0 -- -- 52
2017-11-24 00:00:00 13.6 5 Oeste 10 Noroeste 0 -- -- 64
2017-11-23 23:00:00 14.3 12 Oeste 17 Oeste 0 -- -- 67
2017-11-23 22:00:00 15.1 8 Oeste 14 Oeste 0 -- -- 73
2017-11-23 21:00:00 15 7 Noroeste 13 Oeste 0 -- -- 81
2017-11-23 20:00:00 16.1 11 Noroeste 14 Oeste 0 -- -- 85
2017-11-23 19:00:00 17.2 9 Noroeste 12 Noroeste 0 -- -- 85
2017-11-23 18:00:00 18.4 3 Oeste 16 Sur 0 -- -- 80
2017-11-23 17:00:00 19.3 17 Sur 23 Sur 0 -- -- 79
2017-11-23 16:00:00 18.9 22 Sur 30 Sur 0 -- -- 84
2017-11-23 15:00:00 18.4 27 Sur 32 Sur 0 -- -- 81
2017-11-23 14:00:00 18.3 25 Sudeste 28 Sudeste 0 -- -- 76
2017-11-23 13:00:00 17.8 18 Sudeste 20 Sudeste 0 -- -- 70
2017-11-23 12:00:00 17.4 13 Sudeste 15 Sur 0 -- -- 64
2017-11-23 11:00:00 19.3 0 Calma 8 Oeste 0 -- -- 35
2017-11-23 10:00:00 13.9 4 Noroeste 18 Oeste 0 -- -- 49
2017-11-23 09:00:00 11.6 15 Oeste 18 Oeste 0 -- -- 52
2017-11-23 08:00:00 10.8 4 Noroeste 10 Oeste 0 -- -- 53
2017-11-23 07:00:00 11.3 10 Oeste 14 Oeste 0 -- -- 49
2017-11-23 06:00:00 9.8 4 Noroeste 11 Noroeste 0 -- -- 66
2017-11-23 05:00:00 10.7 3 Noroeste 15 Oeste 0 -- -- 65
2017-11-23 04:00:00 10.3 4 Noroeste 18 Oeste 0 -- -- 67
2017-11-23 03:00:00 11.2 15 Oeste 20 Oeste 0 -- -- 64
2017-11-23 02:00:00 11.3 9 Oeste 19 Oeste 0 -- -- 69
2017-11-23 01:00:00 11.2 11 Oeste 15 Oeste 0 -- -- 73
2017-11-23 00:00:00 12.5 6 Oeste 16 Oeste 0 -- -- 74
2017-11-22 23:00:00 13.1 17 Oeste 24 Oeste 0 -- -- 66
2017-11-22 22:00:00 13.7 12 Oeste 21 Oeste 0 -- -- 76
2017-11-22 21:00:00 14.2 10 Oeste 18 Oeste 0 -- -- 82
2017-11-22 20:00:00 14.8 7 Sudoeste 16 Sudoeste 0 -- -- 81
2017-11-22 19:00:00 16.2 7 Sudoeste 22 Sudeste 0 -- -- 77
2017-11-22 18:00:00 17.7 20 Sudeste 25 Sudeste 0 -- -- 77
2017-11-22 17:00:00 17.8 21 Sudeste 24 Sudeste 0 -- -- 75
2017-11-22 16:00:00 17.8 18 Sudeste 22 Sudeste 0 -- -- 74
2017-11-22 15:00:00 17.9 16 Sudeste 19 Sudeste 0 -- -- 72
2017-11-22 14:00:00 17.9 15 Sudeste 19 Sudeste 0 -- -- 71
2017-11-22 13:00:00 19 4 Sudeste 5 Sudeste 0 -- -- 64
2017-11-22 12:00:00 18 5 Oeste 15 Oeste 0 -- -- 47
2017-11-22 11:00:00 14.2 11 Noroeste 15 Noroeste 0 -- -- 52
2017-11-22 10:00:00 11.8 4 Noroeste 18 Oeste 0 -- -- 57
2017-11-22 09:00:00 9.4 15 Noroeste 22 Noroeste 0 -- -- 62
2017-11-22 08:00:00 8.8 15 Oeste 19 Oeste 0 -- -- 64
2017-11-22 07:00:00 8.9 12 Noroeste 17 Oeste 0 -- -- 66
2017-11-22 06:00:00 9.2 12 Noroeste 17 Noroeste 0 -- -- 66
2017-11-22 05:00:00 9.5 10 Noroeste 20 Oeste 0 -- -- 67
2017-11-22 04:00:00 10.3 16 Oeste 23 Oeste 0 -- -- 65
2017-11-22 03:00:00 11.6 12 Oeste 20 Oeste 0 -- -- 65
2017-11-22 02:00:00 11.7 13 Oeste 17 Oeste 0 -- -- 68
2017-11-22 01:00:00 12.4 8 Oeste 16 Oeste 0 -- -- 71
2017-11-22 00:00:00 12.9 8 Oeste 15 Oeste 0 -- -- 74
2017-11-21 23:00:00 13 12 Oeste 18 Oeste 0 -- -- 79
2017-11-21 22:00:00 13.8 13 Oeste 21 Oeste 0 -- -- 80
2017-11-21 21:00:00 14 12 Oeste 16 Oeste 0 -- -- 82
2017-11-21 20:00:00 15.5 12 Oeste 16 Oeste 0 -- -- 78
2017-11-21 19:00:00 17.9 6 Sur 14 Sudeste 0 -- -- 78
2017-11-21 18:00:00 18.3 12 Sudeste 19 Sudeste 0 -- -- 79
2017-11-21 17:00:00 18.6 17 Sudeste 22 Sudeste 0 -- -- 77
2017-11-21 16:00:00 18.6 19 Sudeste 26 Sudeste 0 -- -- 72
2017-11-21 15:00:00 18.3 23 Sudeste 27 Sudeste 0 -- -- 65
2017-11-21 14:00:00 18.5 21 Sudeste 24 Sudeste 0 -- -- 63
2017-11-21 13:00:00 18.6 16 Sudeste 19 Sudeste 0 -- -- 69
2017-11-21 12:00:00 19.5 5 Sudeste 9 Sudeste 0 -- -- 43
2017-11-21 11:00:00 16.6 6 Noroeste 10 Noroeste 0 -- -- 51
2017-11-21 10:00:00 13.4 7 Noroeste 15 Oeste 0 -- -- 59
2017-11-21 09:00:00 11 8 Noroeste 16 Noroeste 0 -- -- 62
2017-11-21 08:00:00 9.7 15 Noroeste 22 Noroeste 0 -- -- 68
2017-11-21 07:00:00 10.2 15 Oeste 22 Oeste 0 -- -- 70
2017-11-21 06:00:00 10.1 10 Noroeste 18 Oeste 0 -- -- 75
2017-11-21 05:00:00 10.5 9 Oeste 16 Noroeste 0 -- -- 77
2017-11-21 04:00:00 10.8 8 Oeste 17 Oeste 0 -- -- 80
2017-11-21 03:00:00 11.8 10 Oeste 18 Oeste 0 -- -- 75
2017-11-21 02:00:00 11.9 11 Oeste 15 Oeste 0 -- -- 80
2017-11-21 01:00:00 12.1 11 Oeste 16 Noroeste 0 -- -- 85
2017-11-21 00:00:00 13.2 13 Oeste 18 Oeste 0 -- -- 87
2017-11-20 23:00:00 13.9 12 Oeste 16 Oeste 0 -- -- 86
2017-11-20 22:00:00 14.3 10 Oeste 16 Oeste 0 -- -- 89
2017-11-20 21:00:00 15.1 10 Oeste 13 Oeste 0 -- -- 90
2017-11-20 20:00:00 15.9 8 Sudoeste 12 Sudoeste 0 -- -- 87
2017-11-20 19:00:00 17.3 7 Sur 17 Sudeste 0 -- -- 85
2017-11-20 18:00:00 18.1 15 Sur 18 Sudeste 0 -- -- 84
2017-11-20 17:00:00 18.3 13 Sudeste 21 Sudeste 0 -- -- 81
2017-11-20 16:00:00 18.4 17 Sudeste 21 Este 0 -- -- 80
2017-11-20 15:00:00 18.4 15 Este 19 Este 0 -- -- 81
2017-11-20 14:00:00 18.3 14 Este 17 Este 0 -- -- 78
2017-11-20 13:00:00 18.3 8 Este 12 Este 0 -- -- 76
2017-11-20 12:00:00 21.1 0 Calma 8 Noroeste 0 -- -- 64
2017-11-20 11:00:00 16.8 5 Noroeste 16 Oeste 0 -- -- 62
2017-11-20 10:00:00 13.2 9 Oeste 20 Oeste 0 -- -- 70
2017-11-20 09:00:00 10 16 Noroeste 21 Noroeste 0 -- -- 77
2017-11-20 08:00:00 10.6 16 Oeste 24 Oeste 0 -- -- 75
2017-11-20 07:00:00 10.2 14 Oeste 18 Oeste 0 -- -- 76
2017-11-20 06:00:00 9.9 14 Noroeste 20 Oeste 0 -- -- 79
2017-11-20 05:00:00 10.6 12 Oeste 19 Oeste 0 -- -- 77
2017-11-20 04:00:00 10.7 16 Oeste 19 Oeste 0 -- -- 79
2017-11-20 03:00:00 11.6 12 Oeste 17 Oeste 0 -- -- 81
2017-11-20 02:00:00 11.5 13 Noroeste 18 Oeste 0 -- -- 83
2017-11-20 01:00:00 12.4 15 Oeste 22 Oeste 0 -- -- 80
2017-11-20 00:00:00 13 18 Oeste 21 Oeste 0 -- -- 84
2017-11-19 23:00:00 13.8 13 Oeste 18 Oeste 0 -- -- 88
2017-11-19 22:00:00 14.1 14 Oeste 17 Oeste 0 -- -- 89
2017-11-19 21:00:00 14.5 12 Oeste 18 Oeste 0 -- -- 89
2017-11-19 20:00:00 15.3 6 Oeste 9 Oeste 0 -- -- 86
2017-11-19 19:00:00 17.5 5 Sudeste 13 Sudeste 0 -- -- 81
2017-11-19 18:00:00 18 10 Sudeste 15 Este 0 -- -- 78
2017-11-19 17:00:00 18.2 10 Este 14 Este 0 -- -- 77
2017-11-19 16:00:00 18.3 10 Este 13 Nordeste 0 -- -- 75
2017-11-19 15:00:00 18.1 6 Nordeste 11 Nordeste 0 -- -- 74
2017-11-19 14:00:00 20 0 Calma 6 Norte 0 -- -- 67
2017-11-19 13:00:00 18.1 4 Noroeste 7 Oeste 0 -- -- 72
2017-11-19 12:00:00 17.1 6 Noroeste 16 Noroeste 0 -- -- 65
2017-11-19 11:00:00 14.4 11 Noroeste 19 Oeste 0 -- -- 68
2017-11-19 10:00:00 12 14 Oeste 19 Noroeste 0 -- -- 71
2017-11-19 09:00:00 10 16 Noroeste 25 Noroeste 0 -- -- 76
2017-11-19 08:00:00 9.7 20 Oeste 24 Oeste 0 -- -- 75
2017-11-19 07:00:00 9.4 17 Noroeste 21 Noroeste 0 -- -- 82
2017-11-19 06:00:00 9.7 16 Noroeste 21 Oeste 0 -- -- 80
2017-11-19 05:00:00 10.1 18 Noroeste 21 Oeste 0 -- -- 80
2017-11-19 04:00:00 10.2 12 Noroeste 20 Oeste 0 -- -- 82
2017-11-19 03:00:00 10.9 15 Noroeste 23 Oeste 0 -- -- 83
2017-11-19 02:00:00 11.2 17 Noroeste 21 Oeste 0 -- -- 83
2017-11-19 01:00:00 12.1 17 Oeste 23 Oeste 0 -- -- 83
2017-11-19 00:00:00 12.7 16 Oeste 22 Oeste 0 -- -- 85
2017-11-18 23:00:00 13.4 13 Oeste 18 Noroeste 0 -- -- 87
2017-11-18 22:00:00 13.3 14 Oeste 17 Oeste 0 -- -- 88
2017-11-18 21:00:00 14 11 Oeste 14 Oeste 0 -- -- 86
2017-11-18 20:00:00 15.1 9 Oeste 11 Oeste 0 -- -- 83
2017-11-18 19:00:00 17.2 6 Sudeste 13 Sudeste 0 -- -- 77
2017-11-18 18:00:00 17.5 11 Sudeste 21 Este 0 -- -- 77
2017-11-18 17:00:00 17.8 16 Sudeste 22 Sudeste 0 -- -- 78
2017-11-18 16:00:00 17.6 19 Sudeste 28 Sudeste 0 -- -- 76
2017-11-18 15:00:00 17.5 18 Sudeste 22 Sudeste 0 -- -- 75
2017-11-18 14:00:00 17.6 17 Sudeste 19 Sudeste 0 -- -- 73
2017-11-18 13:00:00 18.1 11 Sudeste 14 Este 0 -- -- 67
2017-11-18 12:00:00 17.8 6 Este 9 Nordeste 0 -- -- 58
2017-11-18 11:00:00 16.3 4 Noroeste 11 Oeste 0 -- -- 58
2017-11-18 10:00:00 12.8 5 Noroeste 18 Noroeste 0 -- -- 71
2017-11-18 09:00:00 10.5 15 Noroeste 20 Oeste 0 -- -- 76
2017-11-18 08:00:00 9.9 13 Oeste 18 Noroeste 0 -- -- 79
2017-11-18 07:00:00 10.3 7 Oeste 14 Noroeste 0 -- -- 83
2017-11-18 06:00:00 9.3 5 Noroeste 20 Oeste 0 -- -- 85
2017-11-18 05:00:00 10.6 5 Oeste 17 Oeste 0 -- -- 84
2017-11-18 04:00:00 11.1 14 Oeste 19 Oeste 0 -- -- 84
2017-11-18 03:00:00 11.1 13 Oeste 17 Oeste 0 -- -- 85
2017-11-18 02:00:00 11.5 9 Noroeste 17 Oeste 0 -- -- 86
2017-11-18 01:00:00 12.7 11 Oeste 17 Oeste 0 -- -- 84
2017-11-18 00:00:00 13.1 11 Oeste 15 Oeste 0 -- -- 85
2017-11-17 23:00:00 13.4 10 Oeste 15 Oeste 0 -- -- 84
2017-11-17 22:00:00 13.9 10 Oeste 20 Oeste 0 -- -- 83
2017-11-17 21:00:00 15.1 16 Oeste 18 Oeste 0 -- -- 79
2017-11-17 20:00:00 16.1 10 Sudoeste 13 Sudoeste 0 -- -- 77
2017-11-17 19:00:00 17.1 8 Sur 18 Sudeste 0 -- -- 75
2017-11-17 18:00:00 17.4 14 Sudeste 22 Sudeste 0 -- -- 74
2017-11-17 17:00:00 17.5 17 Sudeste 24 Sudeste 0 -- -- 73
2017-11-17 16:00:00 17.7 20 Sudeste 26 Sudeste 0 -- -- 74
2017-11-17 15:00:00 17.5 21 Sudeste 26 Sudeste 0 -- -- 72
2017-11-17 14:00:00 17.5 18 Sudeste 21 Sudeste 0 -- -- 72
2017-11-17 13:00:00 18.1 10 Sudeste 13 Este 0 -- -- 68
2017-11-17 12:00:00 18.9 3 Nordeste 10 Noroeste 0 -- -- 58
2017-11-17 11:00:00 16.1 9 Noroeste 17 Noroeste 0 -- -- 59
2017-11-17 10:00:00 12.7 14 Noroeste 19 Noroeste 0 -- -- 69
2017-11-17 09:00:00 10 11 Noroeste 17 Oeste 0 -- -- 81
2017-11-17 08:00:00 9.5 9 Noroeste 21 Oeste 0 -- -- 88
2017-11-17 07:00:00 9.1 12 Noroeste 20 Noroeste 0 -- -- 86
2017-11-17 06:00:00 9.2 12 Noroeste 22 Oeste 0 -- -- 86
2017-11-17 05:00:00 10.6 13 Oeste 19 Oeste 0 -- -- 82
2017-11-17 04:00:00 10.7 9 Oeste 15 Noroeste 0 -- -- 86
2017-11-17 03:00:00 11.1 11 Noroeste 16 Oeste 0 -- -- 86
2017-11-17 02:00:00 11.3 14 Noroeste 18 Oeste 0 -- -- 87
2017-11-17 01:00:00 11.9 12 Oeste 17 Oeste 0 -- -- 86
2017-11-17 00:00:00 12.7 10 Noroeste 17 Oeste 0 -- -- 85
2017-11-16 23:00:00 13.3 13 Noroeste 17 Oeste 0 -- -- 83
2017-11-16 22:00:00 13.9 10 Noroeste 15 Oeste 0 -- -- 80
2017-11-16 21:00:00 14.7 10 Oeste 14 Oeste 0 -- -- 77
2017-11-16 20:00:00 16.4 5 Sudoeste 16 Este 0 -- -- 73
2017-11-16 19:00:00 17.1 12 Sudeste 20 Este 0 -- -- 69
2017-11-16 18:00:00 17.3 15 Sudeste 23 Este 0 -- -- 72
2017-11-16 17:00:00 17.3 20 Sudeste 24 Sudeste 0 -- -- 73
2017-11-16 16:00:00 17.2 21 Sudeste 26 Sudeste 0 -- -- 74
2017-11-16 15:00:00 17.4 21 Sudeste 25 Sudeste 0 -- -- 75
2017-11-16 14:00:00 17.2 20 Sudeste 23 Sudeste 0 -- -- 73
2017-11-16 13:00:00 17.3 14 Sudeste 18 Sudeste 0 -- -- 61
2017-11-16 12:00:00 17.1 8 Este 9 Este 0 -- -- 52
2017-11-16 11:00:00 16.4 5 Noroeste 18 Noroeste 0 -- -- 49
2017-11-16 10:00:00 13.1 10 Noroeste 17 Noroeste 0 -- -- 56
2017-11-16 09:00:00 10.4 11 Noroeste 20 Oeste 0 -- -- 65
2017-11-16 08:00:00 9.2 12 Noroeste 21 Oeste 0 -- -- 68
2017-11-16 07:00:00 9.3 11 Oeste 21 Oeste 0 -- -- 70
2017-11-16 06:00:00 9.2 9 Noroeste 16 Oeste 0 -- -- 73
2017-11-16 05:00:00 9.2 6 Noroeste 16 Oeste 0 -- -- 79
2017-11-16 04:00:00 10.3 9 Oeste 20 Oeste 0 -- -- 77
2017-11-16 03:00:00 10.7 13 Noroeste 17 Noroeste 0 -- -- 76
2017-11-16 02:00:00 11.2 7 Oeste 13 Oeste 0 -- -- 78
2017-11-16 01:00:00 11.9 7 Noroeste 17 Oeste 0 -- -- 77
2017-11-16 00:00:00 12.6 13 Oeste 17 Oeste 0 -- -- 76
2017-11-15 23:00:00 12.8 14 Oeste 18 Oeste 0 -- -- 75
2017-11-15 22:00:00 13.5 8 Oeste 14 Oeste 0 -- -- 73
2017-11-15 21:00:00 14.7 7 Sudoeste 11 Sudoeste 0 -- -- 70
2017-11-15 20:00:00 15 9 Oeste 21 Sur 0 -- -- 70
2017-11-15 19:00:00 16.5 19 Sur 31 Sur 0 -- -- 67
2017-11-15 18:00:00 17.2 26 Sur 31 Sur 0 -- -- 69
2017-11-15 17:00:00 17.4 24 Sudeste 32 Sudeste 0 -- -- 68
2017-11-15 16:00:00 17.2 26 Sudeste 33 Sudeste 0 -- -- 65
2017-11-15 15:00:00 17.2 25 Sudeste 31 Sudeste 0 -- -- 65
2017-11-15 14:00:00 17.2 21 Sudeste 27 Sudeste 0 -- -- 63
2017-11-15 13:00:00 17.4 16 Sudeste 22 Sudeste 0 -- -- 61
2017-11-15 12:00:00 17.9 4 Nordeste 8 Noroeste 0 -- -- 52
2017-11-15 11:00:00 15.5 6 Noroeste 12 Noroeste 0 -- -- 48
2017-11-15 10:00:00 12.7 9 Noroeste 13 Noroeste 0 -- -- 53
2017-11-15 09:00:00 9.9 10 Noroeste 21 Noroeste 0 -- -- 62
2017-11-15 08:00:00 8.3 11 Noroeste 19 Noroeste 0 -- -- 63
2017-11-15 07:00:00 8.9 12 Noroeste 17 Noroeste 0 -- -- 62
2017-11-15 06:00:00 9.4 15 Noroeste 19 Noroeste 0 -- -- 61
2017-11-15 05:00:00 9.1 15 Noroeste 19 Noroeste 0 -- -- 63
2017-11-15 04:00:00 9.2 17 Oeste 22 Oeste 0 -- -- 63
2017-11-15 03:00:00 9.2 15 Noroeste 19 Oeste 0 -- -- 62
2017-11-15 02:00:00 9.4 15 Noroeste 20 Noroeste 0 -- -- 64
2017-11-15 01:00:00 9.5 15 Noroeste 24 Oeste 0 -- -- 64
2017-11-15 00:00:00 10.8 19 Oeste 25 Oeste 0 -- -- 59
2017-11-14 23:00:00 11 16 Oeste 21 Oeste 0 -- -- 62
2017-11-14 22:00:00 11.6 14 Oeste 18 Oeste 0 -- -- 60
2017-11-14 21:00:00 12.4 12 Oeste 16 Oeste 0 -- -- 57
2017-11-14 20:00:00 13 8 Oeste 11 Oeste 0 -- -- 56
2017-11-14 19:00:00 15.4 5 Sur 13 Sudeste 0 -- -- 55
2017-11-14 18:00:00 16 9 Sudeste 15 Sudeste 0 -- -- 53
2017-11-14 17:00:00 16.4 10 Sudeste 19 Este 0 -- -- 48
2017-11-14 16:00:00 16.7 13 Este 20 Este 0 -- -- 48
2017-11-14 15:00:00 16.3 14 Este 26 Este 0 -- -- 41
2017-11-14 14:00:00 16.2 18 Este 25 Nordeste 0 -- -- 43
2017-11-14 13:00:00 16 12 Este 22 Nordeste 0 -- -- 39
2017-11-14 12:00:00 16.1 5 Nordeste 11 Noroeste 0 -- -- 35
2017-11-14 11:00:00 14.7 5 Norte 15 Norte 0 -- -- 34
2017-11-14 10:00:00 12.3 12 Norte 17 Norte 0 -- -- 38
2017-11-14 09:00:00 9.6 8 Noroeste 17 Oeste 0 -- -- 48
2017-11-14 08:00:00 8.7 10 Noroeste 18 Noroeste 0 -- -- 53
2017-11-14 07:00:00 9.4 13 Noroeste 17 Noroeste 0 -- -- 48
2017-11-14 06:00:00 8.3 4 Noroeste 15 Noroeste 0 -- -- 57
2017-11-14 05:00:00 10.2 7 Noroeste 14 Noroeste 0 -- -- 44
2017-11-14 04:00:00 11.1 11 Noroeste 20 Norte 0 -- -- 41
2017-11-14 03:00:00 12.8 10 Norte 22 Norte 0 -- -- 39
2017-11-14 02:00:00 13 9 Noroeste 19 Norte 0 -- -- 41
2017-11-14 01:00:00 14.1 8 Noroeste 24 Noroeste 0 -- -- 41
2017-11-14 00:00:00 15.9 14 Norte 32 Nordeste 0 -- -- 44
2017-11-13 23:00:00 16 17 Norte 26 Nordeste 0 -- -- 46
2017-11-13 22:00:00 17.8 17 Norte 31 Norte 0 -- -- 39
2017-11-13 21:00:00 18.2 11 Norte 31 Norte 0 -- -- 45
2017-11-13 20:00:00 18.5 9 Norte 28 Norte 0 -- -- 52
2017-11-13 19:00:00 19.3 12 Sur 21 Sur 0 -- -- 48
2017-11-13 18:00:00 19.9 15 Sur 29 Sur 0 -- -- 52
2017-11-13 17:00:00 19.9 27 Sur 32 Sur 0 -- -- 56
2017-11-13 16:00:00 20 23 Sur 38 Sudeste 0 -- -- 57
2017-11-13 15:00:00 19.2 28 Sur 40 Sur 0 -- -- 68
2017-11-13 14:00:00 19.3 27 Sudeste 32 Sur 0 -- -- 76
2017-11-13 13:00:00 19.4 26 Sudeste 28 Sudeste 0 -- -- 74
2017-11-13 12:00:00 19.4 22 Sur 25 Sudeste 0 -- -- 72
2017-11-13 11:00:00 19.5 17 Sudeste 22 Sur 0 -- -- 68
2017-11-13 10:00:00 21.2 6 Sudoeste 19 Oeste 0 -- -- 35
2017-11-13 09:00:00 17.7 10 Oeste 18 Oeste 0 -- -- 40
2017-11-13 08:00:00 16.1 12 Oeste 19 Oeste 0 -- -- 41
2017-11-13 07:00:00 15.2 9 Oeste 19 Oeste 0 -- -- 41
2017-11-13 06:00:00 16.8 8 Oeste 19 Noroeste 0 -- -- 39
2017-11-13 05:00:00 17.1 8 Noroeste 15 Oeste 0 -- -- 43
2017-11-13 04:00:00 17.6 12 Noroeste 24 Norte 0 -- -- 42
2017-11-13 03:00:00 17.2 6 Noroeste 14 Oeste 0 -- -- 46
2017-11-13 02:00:00 16.4 8 Noroeste 14 Noroeste 0 -- -- 45
2017-11-13 01:00:00 17.4 9 Oeste 17 Noroeste 0 -- -- 44
2017-11-13 00:00:00 16.3 14 Noroeste 20 Oeste 0 -- -- 48
2017-11-12 23:00:00 17.6 14 Oeste 21 Oeste 0 -- -- 46
2017-11-12 22:00:00 16.6 13 Oeste 20 Oeste 0 -- -- 58
2017-11-12 21:00:00 18 16 Oeste 21 Oeste 0 -- -- 63
2017-11-12 20:00:00 18.3 8 Oeste 29 Sudoeste 0 -- -- 65
2017-11-12 19:00:00 19.8 21 Sudoeste 27 Sudoeste 0 -- -- 60
2017-11-12 18:00:00 21.5 19 Sudoeste 27 Sudoeste 0 -- -- 49
2017-11-12 17:00:00 20.9 17 Sur 26 Sur 0 -- -- 69
2017-11-12 16:00:00 21 23 Sudeste 29 Sur 0 -- -- 65
2017-11-12 15:00:00 21.3 25 Sur 30 Sur 0 -- -- 61
2017-11-12 14:00:00 21.2 20 Sudeste 24 Sur 0 -- -- 60
2017-11-12 13:00:00 21 7 Sudeste 10 Sudeste 0 -- -- 55
2017-11-12 12:00:00 20.2 6 Este 17 Sudeste 0 -- -- 59
2017-11-12 11:00:00 18.6 13 Sudeste 15 Sur 0 -- -- 61
2017-11-12 10:00:00 17.5 4 Norte 16 Oeste 0 -- -- 51
2017-11-12 09:00:00 14.3 15 Noroeste 20 Oeste 0 -- -- 56
2017-11-12 08:00:00 12.2 14 Noroeste 26 Oeste 0 -- -- 63
2017-11-12 07:00:00 12.5 12 Oeste 19 Oeste 0 -- -- 62
2017-11-12 06:00:00 13 15 Oeste 21 Oeste 0 -- -- 62
2017-11-12 05:00:00 13.9 13 Oeste 18 Oeste 0 -- -- 59
2017-11-12 04:00:00 13.6 16 Noroeste 24 Oeste 0 -- -- 62
2017-11-12 03:00:00 14.4 18 Noroeste 29 Oeste 0 -- -- 59
2017-11-12 02:00:00 15.3 21 Oeste 26 Oeste 0 -- -- 56
2017-11-12 01:00:00 14.8 12 Oeste 22 Oeste 0 -- -- 59
2017-11-12 00:00:00 14.7 12 Oeste 20 Oeste 0 -- -- 61
2017-11-11 23:00:00 14.5 17 Oeste 26 Oeste 0 -- -- 63
2017-11-11 22:00:00 15 18 Oeste 25 Oeste 0 -- -- 68
2017-11-11 21:00:00 15.9 13 Oeste 18 Oeste 0 -- -- 66
2017-11-11 20:00:00 17.1 10 Oeste 19 Oeste 0 -- -- 64
2017-11-11 19:00:00 17.6 15 Oeste 18 Oeste 0 -- -- 75
2017-11-11 18:00:00 19.7 5 Sur 21 Sudeste 0 -- -- 56
2017-11-11 17:00:00 19.4 21 Sudeste 29 Sudeste 0 -- -- 74
2017-11-11 16:00:00 19.2 23 Sudeste 29 Sur 0 -- -- 66
2017-11-11 15:00:00 19.3 21 Sur 26 Sur 0 -- -- 63
2017-11-11 14:00:00 19.1 20 Sudeste 23 Sudeste 0 -- -- 59
2017-11-11 13:00:00 19.4 18 Sudeste 21 Sudeste 0 -- -- 49
2017-11-11 12:00:00 19.4 15 Sudeste 19 Este 0 -- -- 55
2017-11-11 11:00:00 19.3 5 Noroeste 15 Oeste 0 -- -- 42
2017-11-11 10:00:00 17 11 Noroeste 20 Oeste 0 -- -- 48
2017-11-11 09:00:00 14.6 15 Oeste 20 Oeste 0 -- -- 52
2017-11-11 08:00:00 14.2 12 Oeste 19 Oeste 0 -- -- 53
2017-11-11 07:00:00 12.9 13 Oeste 18 Oeste 0 -- -- 57
2017-11-11 06:00:00 13.9 10 Oeste 22 Oeste 0 -- -- 51
2017-11-11 05:00:00 15.3 16 Oeste 22 Oeste 0 -- -- 50
2017-11-11 04:00:00 12.2 9 Oeste 19 Oeste 0 -- -- 61
2017-11-11 03:00:00 14.3 13 Oeste 21 Noroeste 0 -- -- 53
2017-11-11 02:00:00 13.6 16 Oeste 25 Oeste 0 -- -- 55
2017-11-11 01:00:00 14 17 Oeste 24 Oeste 0 -- -- 56
2017-11-11 00:00:00 13.3 18 Oeste 35 Sudoeste 0 -- -- 61
2017-11-10 23:00:00 15.1 25 Oeste 34 Oeste 0 -- -- 57
2017-11-10 22:00:00 15.1 22 Oeste 35 Sudoeste 0 -- -- 59
2017-11-10 21:00:00 14.3 13 Oeste 24 Oeste 0 -- -- 59
2017-11-10 20:00:00 15.2 13 Oeste 18 Sudoeste 0 -- -- 55
2017-11-10 19:00:00 16.6 9 Sudoeste 18 Sur 0 -- -- 51
2017-11-10 18:00:00 17.4 16 Sur 23 Sudeste 0 -- -- 53
2017-11-10 17:00:00 17.5 14 Sudeste 20 Sudeste 0 -- -- 49
2017-11-10 16:00:00 17.6 14 Sudeste 20 Sudeste 0 -- -- 48
2017-11-10 15:00:00 17.7 14 Sudeste 21 Este 0 -- -- 45
2017-11-10 14:00:00 17.7 13 Este 18 Este 0 -- -- 42
2017-11-10 13:00:00 17.8 13 Nordeste 28 Norte 0 -- -- 41
2017-11-10 12:00:00 17 19 Norte 27 Norte 0 -- -- 41
2017-11-10 11:00:00 15.8 19 Noroeste 35 Noroeste 0 -- -- 41
2017-11-10 10:00:00 14.5 22 Noroeste 33 Noroeste 0 -- -- 44
2017-11-10 09:00:00 12.9 15 Noroeste 27 Oeste 0 -- -- 49
2017-11-10 08:00:00 11.3 16 Noroeste 28 Noroeste 0 -- -- 53
2017-11-10 07:00:00 11.7 21 Noroeste 31 Oeste 0 -- -- 52
2017-11-10 06:00:00 12 12 Oeste 21 Oeste 0 -- -- 52
2017-11-10 05:00:00 11.8 10 Oeste 22 Oeste 0 -- -- 51
2017-11-10 04:00:00 11.9 13 Noroeste 26 Noroeste 0 -- -- 50
2017-11-10 03:00:00 11.2 13 Noroeste 18 Noroeste 0 -- -- 51
2017-11-10 02:00:00 11.7 14 Oeste 22 Oeste 0 -- -- 51
2017-11-10 01:00:00 11.3 17 Oeste 22 Oeste 0 -- -- 52
2017-11-10 00:00:00 11.4 17 Oeste 23 Oeste 0 -- -- 54
2017-11-09 23:00:00 11.8 19 Oeste 26 Oeste 0 -- -- 52
2017-11-09 22:00:00 13.6 16 Oeste 20 Oeste 0 -- -- 50
2017-11-09 21:00:00 13.3 16 Oeste 20 Oeste 0 -- -- 52
2017-11-09 20:00:00 13.7 12 Noroeste 17 Este 0 -- -- 52
2017-11-09 19:00:00 17 12 Este 23 Nordeste 0 -- -- 47
2017-11-09 18:00:00 17.2 17 Nordeste 23 Este 0 -- -- 48
2017-11-09 17:00:00 17.9 17 Nordeste 24 Nordeste 0 -- -- 42
2017-11-09 16:00:00 17.6 18 Este 31 Nordeste 0 -- -- 41
2017-11-09 15:00:00 17.6 25 Este 38 Nordeste 0 -- -- 53
2017-11-09 14:00:00 17.5 29 Nordeste 36 Nordeste 0 -- -- 45
2017-11-09 13:00:00 18.1 19 Nordeste 38 Nordeste 0 -- -- 40
2017-11-09 12:00:00 17.7 24 Norte 40 Norte 0 -- -- 42
2017-11-09 11:00:00 17.3 12 Norte 20 Norte 0 -- -- 42
2017-11-09 10:00:00 15.8 11 Norte 26 Norte 0 -- -- 41
2017-11-09 09:00:00 14.4 17 Norte 31 Norte 0 -- -- 42
2017-11-09 08:00:00 14.8 12 Norte 22 Nordeste 0 -- -- 47
2017-11-09 07:00:00 14.4 15 Noroeste 23 Noroeste 0 -- -- 52
2017-11-09 06:00:00 15.6 15 Noroeste 24 Noroeste 0 -- -- 38
2017-11-09 05:00:00 14.8 16 Oeste 24 Oeste 0 -- -- 48
2017-11-09 04:00:00 14 15 Oeste 22 Oeste 0 -- -- 56
2017-11-09 03:00:00 13.6 15 Oeste 22 Oeste 0 -- -- 59
2017-11-09 02:00:00 14.7 13 Oeste 19 Oeste 0 -- -- 55
2017-11-09 01:00:00 14.8 14 Oeste 20 Oeste 0 -- -- 60
2017-11-09 00:00:00 14.3 14 Oeste 18 Oeste 0 -- -- 65
2017-11-08 23:00:00 14.9 11 Oeste 18 Oeste 0 -- -- 61
2017-11-08 22:00:00 15.1 14 Oeste 21 Oeste 0 -- -- 60
2017-11-08 21:00:00 16.1 13 Oeste 16 Oeste 0 -- -- 59
2017-11-08 20:00:00 17.8 4 Oeste 10 Sudoeste 0 -- -- 55
2017-11-08 19:00:00 18.5 10 Sur 28 Sudeste 0 -- -- 50
2017-11-08 18:00:00 19.7 26 Sur 35 Sudeste 0 -- -- 54
2017-11-08 17:00:00 19.2 31 Sur 36 Sur 0 -- -- 65
2017-11-08 16:00:00 19.2 31 Sudeste 35 Sudeste 0 -- -- 67
2017-11-08 15:00:00 18.9 27 Sudeste 31 Sudeste 0 -- -- 66
2017-11-08 14:00:00 18.8 23 Sudeste 28 Sudeste 0 -- -- 70
2017-11-08 13:00:00 18.4 15 Sudeste 18 Sudeste 0 -- -- 66
2017-11-08 12:00:00 19.3 8 Sudeste 10 Sudeste 0 -- -- 46
2017-11-08 11:00:00 18.7 4 Noroeste 12 Noroeste 0 -- -- 39
2017-11-08 10:00:00 15.5 10 Noroeste 14 Oeste 0 -- -- 45
2017-11-08 09:00:00 12.1 14 Noroeste 23 Oeste 0 -- -- 53
2017-11-08 08:00:00 11.5 17 Oeste 24 Oeste 0 -- -- 51
2017-11-08 07:00:00 11.8 18 Oeste 24 Oeste 0 -- -- 49
2017-11-08 06:00:00 10.8 13 Oeste 19 Oeste 0 -- -- 56
2017-11-08 05:00:00 10.7 10 Noroeste 16 Oeste 0 -- -- 61
2017-11-08 04:00:00 11.2 9 Noroeste 14 Oeste 0 -- -- 63
2017-11-08 03:00:00 12 12 Oeste 18 Oeste 0 -- -- 67
2017-11-08 02:00:00 12.8 8 Oeste 18 Oeste 0 -- -- 77
2017-11-08 01:00:00 12.7 13 Oeste 23 Sudoeste 0 -- -- 78
2017-11-08 00:00:00 13.8 9 Oeste 17 Noroeste 0 -- -- 76
2017-11-07 23:00:00 13.7 9 Oeste 13 Oeste 0 -- -- 76
2017-11-07 22:00:00 15.4 5 Oeste 13 Oeste 0 -- -- 72
2017-11-07 21:00:00 15.5 6 Oeste 12 Oeste 0 -- -- 72
2017-11-07 20:00:00 17.3 9 Oeste 14 Oeste 0 -- -- 67
2017-11-07 19:00:00 18 10 Sur 34 Sur 0 -- -- 66
2017-11-07 18:00:00 18.3 27 Sur 47 Sur 0 -- -- 69
2017-11-07 17:00:00 18.6 36 Sur 42 Sur 0 -- -- 68
2017-11-07 16:00:00 18.6 30 Sudeste 39 Sudeste 0 -- -- 67
2017-11-07 15:00:00 18.4 29 Sudeste 35 Sudeste 0 -- -- 69
2017-11-07 14:00:00 17.9 21 Sudeste 28 Sudeste 0 -- -- 64
2017-11-07 13:00:00 18.2 16 Sudeste 19 Sudeste 0 -- -- 52
2017-11-07 12:00:00 18.4 8 Este 15 Nordeste 0 -- -- 43
2017-11-07 11:00:00 17 8 Norte 17 Noroeste 0 -- -- 38
2017-11-07 10:00:00 14.8 10 Noroeste 16 Noroeste 0 -- -- 47
2017-11-07 09:00:00 11.3 7 Noroeste 21 Noroeste 0 -- -- 60
2017-11-07 08:00:00 11.6 14 Oeste 22 Oeste 0 -- -- 59
2017-11-07 07:00:00 11 13 Noroeste 23 Oeste 0 -- -- 59
2017-11-07 06:00:00 12.2 18 Oeste 31 Sudoeste 0 -- -- 58
2017-11-07 05:00:00 12.3 15 Oeste 22 Oeste 0 -- -- 54
2017-11-07 04:00:00 12 13 Noroeste 17 Oeste 0 -- -- 58
2017-11-07 03:00:00 12.6 9 Oeste 18 Oeste 0 -- -- 58
2017-11-07 02:00:00 12.6 13 Oeste 18 Oeste 0 -- -- 59
2017-11-07 01:00:00 13.4 15 Oeste 18 Oeste 0 -- -- 59
2017-11-07 00:00:00 13.7 14 Oeste 20 Oeste 0 -- -- 59
2017-11-06 23:00:00 13.8 14 Noroeste 17 Oeste 0 -- -- 61
2017-11-06 22:00:00 15.3 13 Oeste 20 Sudoeste 0 -- -- 57
2017-11-06 21:00:00 15.8 15 Sudoeste 20 Sudoeste 0 -- -- 56
2017-11-06 20:00:00 16.9 6 Oeste 13 Sur 0 -- -- 53
2017-11-06 19:00:00 17.9 12 Sur 21 Sur 0 -- -- 56
2017-11-06 18:00:00 18.7 17 Sudeste 27 Este 0 -- -- 47
2017-11-06 17:00:00 19.3 21 Sudeste 27 Este 0 -- -- 47
2017-11-06 16:00:00 19.4 21 Sudeste 32 Sudeste 0 -- -- 48
2017-11-06 15:00:00 19.4 25 Sudeste 39 Este 0 -- -- 53
2017-11-06 14:00:00 19.7 34 Este 43 Este 0 -- -- 54
2017-11-06 13:00:00 20.8 22 Nordeste 32 Nordeste 0 -- -- 42
2017-11-06 12:00:00 20.2 15 Nordeste 25 Nordeste 0 -- -- 40
2017-11-06 11:00:00 19.6 7 Norte 28 Norte 0 -- -- 33
2017-11-06 10:00:00 18.3 15 Norte 28 Noroeste 0 -- -- 34
2017-11-06 09:00:00 16.7 17 Noroeste 36 Noroeste 0 -- -- 48
2017-11-06 08:00:00 14.2 9 Noroeste 26 Noroeste 0 -- -- 53
2017-11-06 07:00:00 14.9 18 Noroeste 26 Noroeste 0 -- -- 52
2017-11-06 06:00:00 15.1 14 Noroeste 25 Noroeste 0 -- -- 53
2017-11-06 05:00:00 14.7 9 Noroeste 17 Noroeste 0 -- -- 59
2017-11-06 04:00:00 15.6 9 Noroeste 16 Oeste 0 -- -- 54
2017-11-06 03:00:00 15.9 9 Oeste 15 Oeste 0 -- -- 55
2017-11-06 02:00:00 16.5 9 Noroeste 14 Noroeste 0 -- -- 55
2017-11-06 01:00:00 17.1 7 Noroeste 18 Norte 0 -- -- 51
2017-11-06 00:00:00 17.6 10 Norte 19 Norte 0 -- -- 50
2017-11-05 23:00:00 18.4 13 Norte 17 Norte 0 -- -- 51
2017-11-05 22:00:00 19.5 9 Noroeste 22 Noroeste 0 -- -- 53
2017-11-05 21:00:00 20.2 10 Noroeste 18 Noroeste 0 -- -- 51
2017-11-05 20:00:00 21.4 8 Oeste 13 Oeste 0 -- -- 48
2017-11-05 19:00:00 22.3 6 Noroeste 21 Noroeste 0 -- -- 43
2017-11-05 18:00:00 22.8 11 Norte 34 Oeste 0 -- -- 42
2017-11-05 17:00:00 23.6 14 Oeste 39 Sur 0 -- -- 41
2017-11-05 16:00:00 21.3 33 Sur 54 Sur 0 -- -- 67
2017-11-05 15:00:00 21.3 27 Sur 40 Sur 0 -- -- 69
2017-11-05 14:00:00 23.8 13 Noroeste 29 Noroeste 0 -- -- 40
2017-11-05 13:00:00 23.6 19 Oeste 36 Noroeste 0 -- -- 42
2017-11-05 12:00:00 22.9 15 Oeste 30 Noroeste 0 -- -- 46
2017-11-05 11:00:00 22 21 Noroeste 35 Noroeste 0 -- -- 51
2017-11-05 10:00:00 20.2 4 Noroeste 16 Oeste 0 -- -- 59
2017-11-05 09:00:00 17.4 7 Sudoeste 15 Sudoeste 0 -- -- 66
2017-11-05 08:00:00 16.8 7 Oeste 14 Oeste 0 -- -- 68
2017-11-05 07:00:00 16.6 7 Noroeste 15 Oeste 0 -- -- 70
2017-11-05 06:00:00 17.2 8 Sudoeste 24 Sudoeste 0 -- -- 68
2017-11-05 05:00:00 17 20 Sudoeste 24 Sudoeste 0 -- -- 66
2017-11-05 04:00:00 16.4 12 Oeste 21 Sudoeste 0 -- -- 69
2017-11-05 03:00:00 16.7 17 Sudoeste 21 Sudoeste 0 -- -- 69
2017-11-05 02:00:00 17.7 11 Sudoeste 18 Sudoeste 0 -- -- 63
2017-11-05 01:00:00 18.8 14 Oeste 26 Sudoeste 0 -- -- 62
2017-11-05 00:00:00 17.6 8 Oeste 18 Sudoeste 0 -- -- 71
2017-11-04 23:00:00 18.2 11 Sudoeste 24 Sudoeste 0 -- -- 70
2017-11-04 22:00:00 19.3 20 Sudoeste 30 Sudoeste 0 -- -- 67
2017-11-04 21:00:00 19.3 16 Oeste 31 Sudoeste 0 -- -- 69
2017-11-04 20:00:00 19.9 22 Oeste 33 Sudoeste 0 -- -- 66
2017-11-04 19:00:00 21 14 Sudoeste 26 Sudoeste 0 -- -- 61
2017-11-04 18:00:00 21.6 14 Sudoeste 23 Sudoeste 0 -- -- 59
2017-11-04 17:00:00 22 8 Sur 24 Sur 0 -- -- 68
2017-11-04 16:00:00 20.9 19 Sur 36 Sur 0 -- -- 74
2017-11-04 15:00:00 20.3 5 Sur 21 Sudeste 0 -- -- 71
2017-11-04 14:00:00 20.2 13 Sur 20 Sudeste 0 -- -- 63
2017-11-04 13:00:00 18.6 11 Oeste 37 Noroeste 0.8 -- -- 70
2017-11-04 12:00:00 21.4 6 Oeste 12 Este 0 -- -- 64
2017-11-04 11:00:00 20.7 2 Nordeste 10 Este 0 -- -- 67
2017-11-04 10:00:00 20.7 4 Norte 12 Nordeste 0 -- -- 63
2017-11-04 09:00:00 19.6 4 Nordeste 21 Sudoeste 0 -- -- 73
2017-11-04 08:00:00 17.3 14 Oeste 20 Oeste 0 -- -- 73
2017-11-04 07:00:00 17.5 15 Oeste 21 Oeste 0 -- -- 82
2017-11-04 06:00:00 19 13 Sudoeste 18 Sudoeste 0 -- -- 78
2017-11-04 05:00:00 19.6 13 Sudoeste 33 Sur 0 -- -- 72
2017-11-04 04:00:00 20.2 17 Sur 27 Sudoeste 0 -- -- 77
2017-11-04 03:00:00 18.9 14 Oeste 26 Oeste 0 -- -- 80
2017-11-04 02:00:00 19.6 10 Oeste 22 Oeste 0 -- -- 78
2017-11-04 01:00:00 19.7 11 Oeste 20 Noroeste 0 -- -- 80
2017-11-04 00:00:00 19.5 12 Sudoeste 17 Sudoeste 0 -- -- 83
2017-11-03 23:00:00 20.3 13 Sur 25 Sudeste 0 -- -- 82
2017-11-03 22:00:00 19.8 7 Sudoeste 11 Sudoeste 0 -- -- 87
2017-11-03 21:00:00 20.2 6 Nordeste 10 Norte 0 -- -- 86
2017-11-03 20:00:00 20.5 4 Nordeste 10 Nordeste 0 -- -- 85
2017-11-03 19:00:00 20.7 8 Sudeste 13 Este 0 -- -- 85
2017-11-03 18:00:00 20.7 10 Este 15 Este 0 -- -- 86
2017-11-03 17:00:00 20.7 13 Este 18 Este 0 -- -- 85
2017-11-03 16:00:00 20.8 12 Este 20 Nordeste 0 -- -- 83
2017-11-03 15:00:00 21.5 13 Nordeste 17 Nordeste 0 -- -- 79
2017-11-03 14:00:00 21.5 9 Nordeste 13 Nordeste 0 -- -- 78
2017-11-03 13:00:00 20.8 4 Norte 9 Nordeste 0 -- -- 75
2017-11-03 12:00:00 20.6 4 Norte 10 Noroeste 0 -- -- 74
2017-11-03 11:00:00 19.4 8 Noroeste 15 Noroeste 0 -- -- 74
2017-11-03 10:00:00 17.1 12 Noroeste 15 Noroeste 0 -- -- 83
2017-11-03 09:00:00 15.9 11 Noroeste 19 Oeste 0 -- -- 86
2017-11-03 08:00:00 15.8 14 Oeste 21 Oeste 0 -- -- 87
2017-11-03 07:00:00 15.4 11 Oeste 17 Oeste 0 -- -- 89
2017-11-03 06:00:00 15.8 15 Oeste 18 Oeste 0 -- -- 86
2017-11-03 05:00:00 16.6 11 Oeste 19 Oeste 0 -- -- 87
2017-11-03 04:00:00 17.2 8 Noroeste 13 Oeste 0 -- -- 86
2017-11-03 03:00:00 17.1 9 Oeste 18 Noroeste 0 -- -- 87
2017-11-03 02:00:00 17.2 11 Noroeste 15 Noroeste 0 -- -- 85
2017-11-03 01:00:00 18 10 Noroeste 13 Noroeste 0 -- -- 85
2017-11-03 00:00:00 19 6 Noroeste 8 Oeste 0 -- -- 82
2017-11-02 23:00:00 18.8 5 Noroeste 14 Oeste 0 -- -- 82
2017-11-02 22:00:00 19.1 10 Oeste 14 Oeste 0 -- -- 81
2017-11-02 21:00:00 19.2 9 Oeste 13 Oeste 0 -- -- 81
2017-11-02 20:00:00 20.8 6 Norte 16 Nordeste 0 -- -- 79
2017-11-02 19:00:00 21 11 Nordeste 15 Nordeste 0 -- -- 79
2017-11-02 18:00:00 21.2 10 Nordeste 18 Este 0 -- -- 77
2017-11-02 17:00:00 21.6 13 Nordeste 19 Nordeste 0 -- -- 76
2017-11-02 16:00:00 21.4 15 Nordeste 22 Nordeste 0 -- -- 77
2017-11-02 15:00:00 22 15 Nordeste 22 Nordeste 0 -- -- 75
2017-11-02 14:00:00 22.1 16 Nordeste 22 Nordeste 0 -- -- 73
2017-11-02 13:00:00 22.3 13 Nordeste 18 Nordeste 0 -- -- 71
2017-11-02 12:00:00 22.1 12 Nordeste 19 Nordeste 0 -- -- 72
2017-11-02 11:00:00 21.1 8 Norte 17 Noroeste 0 -- -- 71
2017-11-02 10:00:00 19 13 Noroeste 18 Noroeste 0 -- -- 76
2017-11-02 09:00:00 16.8 14 Noroeste 20 Noroeste 0 -- -- 83
2017-11-02 08:00:00 15.6 13 Noroeste 18 Noroeste 0 -- -- 87
2017-11-02 07:00:00 16.1 14 Noroeste 17 Oeste 0 -- -- 85
2017-11-02 06:00:00 16.3 12 Noroeste 17 Noroeste 0 -- -- 85
2017-11-02 05:00:00 16.4 15 Noroeste 19 Noroeste 0 -- -- 87
2017-11-02 04:00:00 16.5 10 Noroeste 17 Noroeste 0 -- -- 87
2017-11-02 03:00:00 16.7 15 Noroeste 20 Noroeste 0 -- -- 88
2017-11-02 02:00:00 16.6 12 Noroeste 17 Noroeste 0 -- -- 88
2017-11-02 01:00:00 17 9 Noroeste 20 Noroeste 0 -- -- 88
2017-11-02 00:00:00 17.5 11 Noroeste 15 Noroeste 0 -- -- 86
2017-11-01 23:00:00 18.3 9 Noroeste 14 Noroeste 0 -- -- 85
2017-11-01 22:00:00 18.9 8 Noroeste 12 Noroeste 0 -- -- 83
2017-11-01 21:00:00 19.7 7 Noroeste 20 Nordeste 0 -- -- 80
2017-11-01 20:00:00 20.9 14 Nordeste 20 Nordeste 0 -- -- 80
2017-11-01 19:00:00 21 13 Nordeste 22 Nordeste 0 -- -- 81
2017-11-01 18:00:00 21.3 16 Nordeste 23 Este 0 -- -- 79
2017-11-01 17:00:00 21.8 19 Este 26 Nordeste 0 -- -- 78
2017-11-01 16:00:00 21.8 17 Este 22 Este 0 -- -- 78
2017-11-01 15:00:00 22 17 Este 22 Este 0 -- -- 77
2017-11-01 14:00:00 22.8 13 Nordeste 20 Nordeste 0 -- -- 77
2017-11-01 13:00:00 22.7 12 Nordeste 18 Nordeste 0 -- -- 78
2017-11-01 12:00:00 22.3 12 Nordeste 19 Nordeste 0 -- -- 79
2017-11-01 11:00:00 20 11 Oeste 18 Noroeste 0 -- -- 74
2017-11-01 10:00:00 18.8 12 Oeste 18 Oeste 0 -- -- 75
2017-11-01 09:00:00 17.3 13 Oeste 17 Oeste 0 -- -- 79
2017-11-01 08:00:00 16.3 14 Noroeste 17 Noroeste 0 -- -- 84
2017-11-01 07:00:00 16 14 Oeste 18 Oeste 0 -- -- 83
2017-11-01 06:00:00 15.9 12 Noroeste 19 Oeste 0 -- -- 85
2017-11-01 05:00:00 16.2 16 Oeste 20 Oeste 0 -- -- 84
2017-11-01 04:00:00 16.2 15 Oeste 19 Oeste 0 -- -- 85
2017-11-01 03:00:00 16.5 13 Noroeste 17 Noroeste 0 -- -- 86
2017-11-01 02:00:00 16.6 10 Noroeste 18 Noroeste 0 -- -- 87
2017-11-01 01:00:00 16.7 14 Noroeste 19 Noroeste 0 -- -- 86
2017-11-01 00:00:00 17.2 14 Noroeste 18 Oeste 0 -- -- 86
2017-10-31 23:00:00 18.4 11 Noroeste 15 Oeste 0 -- -- 84
2017-10-31 22:00:00 18.7 9 Noroeste 14 Noroeste 0 -- -- 83
2017-10-31 21:00:00 18.9 8 Noroeste 16 Nordeste 0 -- -- 81
2017-10-31 20:00:00 20.9 10 Nordeste 17 Nordeste 0 -- -- 77
2017-10-31 19:00:00 21 14 Nordeste 22 Este 0 -- -- 77
2017-10-31 18:00:00 21.4 18 Este 23 Nordeste 0 -- -- 78
2017-10-31 17:00:00 22.1 19 Este 24 Este 0 -- -- 77
2017-10-31 16:00:00 21.9 19 Nordeste 25 Este 0 -- -- 75
2017-10-31 15:00:00 22.2 22 Nordeste 27 Nordeste 0 -- -- 75
2017-10-31 14:00:00 22.3 21 Nordeste 25 Este 0 -- -- 70
2017-10-31 13:00:00 22.9 13 Nordeste 19 Nordeste 0 -- -- 68
2017-10-31 12:00:00 23 8 Nordeste 15 Norte 0 -- -- 67
2017-10-31 11:00:00 20.7 9 Noroeste 17 Noroeste 0 -- -- 70
2017-10-31 10:00:00 18.9 12 Noroeste 18 Noroeste 0 -- -- 76
2017-10-31 09:00:00 16.6 13 Noroeste 18 Noroeste 0 -- -- 84
2017-10-31 08:00:00 15.2 13 Noroeste 17 Noroeste 0 -- -- 89
2017-10-31 07:00:00 14.9 13 Noroeste 17 Noroeste 0 -- -- 90
2017-10-31 06:00:00 15.7 14 Noroeste 22 Noroeste 0 -- -- 88
2017-10-31 05:00:00 16 14 Noroeste 19 Noroeste 0 -- -- 88
2017-10-31 04:00:00 16.3 15 Noroeste 20 Noroeste 0 -- -- 89
2017-10-31 03:00:00 16.6 12 Noroeste 15 Noroeste 0 -- -- 89
2017-10-31 02:00:00 16.8 9 Noroeste 14 Oeste 0 -- -- 85
2017-10-31 01:00:00 17.8 10 Oeste 14 Noroeste 0 -- -- 84
2017-10-31 00:00:00 17.9 10 Oeste 15 Oeste 0 -- -- 83
2017-10-30 23:00:00 17.9 9 Oeste 14 Oeste 0 -- -- 87
2017-10-30 22:00:00 18.2 11 Oeste 15 Sudoeste 0 -- -- 86
2017-10-30 21:00:00 19.5 12 Sudoeste 14 Sudoeste 0 -- -- 81
2017-10-30 20:00:00 20.6 9 Sur 19 Sur 0 -- -- 79
2017-10-30 19:00:00 21.1 16 Sudeste 21 Sudeste 0 -- -- 78
2017-10-30 18:00:00 21.3 19 Sudeste 25 Sudeste 0 -- -- 80
2017-10-30 17:00:00 21.3 22 Sudeste 26 Sudeste 0 -- -- 81
2017-10-30 16:00:00 21.2 23 Sudeste 26 Sudeste 0 -- -- 81
2017-10-30 15:00:00 21.3 22 Sudeste 27 Sudeste 0 -- -- 81
2017-10-30 14:00:00 21.6 20 Sudeste 23 Sudeste 0 -- -- 78
2017-10-30 13:00:00 21.8 18 Sudeste 22 Sudeste 0 -- -- 76
2017-10-30 12:00:00 21.9 10 Este 13 Este 0 -- -- 69
2017-10-30 11:00:00 22.7 4 Nordeste 9 Noroeste 0 -- -- 60
2017-10-30 10:00:00 18.6 6 Noroeste 14 Oeste 0 -- -- 68
2017-10-30 09:00:00 16.2 10 Oeste 18 Oeste 0 -- -- 78
2017-10-30 08:00:00 15.4 14 Oeste 19 Oeste 0 -- -- 82
2017-10-30 07:00:00 15.5 12 Oeste 17 Oeste 0 -- -- 83
2017-10-30 06:00:00 15.7 10 Noroeste 13 Noroeste 0 -- -- 82
2017-10-30 05:00:00 16.1 8 Noroeste 14 Oeste 0 -- -- 81
2017-10-30 04:00:00 16.4 10 Oeste 15 Oeste 0 -- -- 82
2017-10-30 03:00:00 16.3 12 Oeste 20 Oeste 0 -- -- 82
2017-10-30 02:00:00 17.2 13 Oeste 17 Oeste 0 -- -- 79
2017-10-30 01:00:00 17.1 8 Oeste 14 Oeste 0 -- -- 79
2017-10-30 00:00:00 17 13 Oeste 18 Oeste 0 -- -- 77
2017-10-29 23:00:00 18.4 12 Oeste 17 Oeste 0 -- -- 74
2017-10-29 22:00:00 18.6 12 Oeste 18 Oeste 0 -- -- 75
2017-10-29 21:00:00 19.8 9 Oeste 13 Oeste 0 -- -- 69
2017-10-29 20:00:00 21.1 6 Sudeste 14 Sudeste 0 -- -- 71
2017-10-29 19:00:00 21.5 11 Sudeste 20 Sudeste 0 -- -- 70
2017-10-29 18:00:00 21.7 15 Sudeste 21 Sudeste 0 -- -- 69
2017-10-29 17:00:00 22.2 18 Sudeste 23 Sudeste 0 -- -- 68
2017-10-29 16:00:00 22.2 20 Sudeste 24 Este 0 -- -- 69
2017-10-29 15:00:00 22.2 19 Sudeste 24 Sudeste 0 -- -- 73
2017-10-29 14:00:00 22.3 20 Sudeste 23 Este 0 -- -- 75
2017-10-29 13:00:00 22.2 14 Este 20 Este 0 -- -- 77
2017-10-29 12:00:00 23.5 9 Nordeste 12 Nordeste 0 -- -- 69
2017-10-29 11:00:00 23.2 5 Nordeste 9 Noroeste 0 -- -- 68
2017-10-29 10:00:00 20.5 7 Noroeste 13 Oeste 0 -- -- 73
2017-10-29 09:00:00 18.5 10 Oeste 17 Oeste 0 -- -- 79
2017-10-29 08:00:00 17.8 14 Oeste 18 Oeste 0 -- -- 82
2017-10-29 07:00:00 18 7 Oeste 12 Oeste 0 -- -- 83
2017-10-29 06:00:00 18.2 12 Oeste 16 Oeste 0 -- -- 83
2017-10-29 05:00:00 18.3 13 Oeste 18 Oeste 0 -- -- 80
2017-10-29 04:00:00 18.1 12 Oeste 14 Oeste 0 -- -- 83
2017-10-29 03:00:00 18.3 10 Noroeste 17 Oeste 0 -- -- 85
2017-10-29 02:00:00 18.5 13 Noroeste 19 Oeste 0 -- -- 85
2017-10-29 01:00:00 19.2 11 Oeste 16 Oeste 0 -- -- 85
2017-10-29 00:00:00 19.3 10 Oeste 14 Oeste 0 -- -- 85
2017-10-28 23:00:00 19.5 9 Oeste 12 Noroeste 0 -- -- 85
2017-10-28 22:00:00 20.4 5 Noroeste 11 Nordeste 0 -- -- 82
2017-10-28 21:00:00 21.5 8 Nordeste 14 Nordeste 0 -- -- 80
2017-10-28 20:00:00 21.8 9 Nordeste 14 Nordeste 0 -- -- 80
2017-10-28 19:00:00 22.2 12 Este 21 Este 0 -- -- 78
2017-10-28 18:00:00 22.3 16 Este 19 Este 0 -- -- 76
2017-10-28 17:00:00 22.9 12 Nordeste 17 Nordeste 0 -- -- 77
2017-10-28 16:00:00 22.9 13 Nordeste 18 Nordeste 0 -- -- 76
2017-10-28 15:00:00 23.3 12 Nordeste 18 Nordeste 0 -- -- 74
2017-10-28 14:00:00 23.3 14 Nordeste 20 Nordeste 0 -- -- 74
2017-10-28 13:00:00 23 13 Nordeste 23 Nordeste 0 -- -- 76
2017-10-28 12:00:00 22.6 14 Norte 22 Norte 0 -- -- 75
2017-10-28 11:00:00 21.4 8 Norte 16 Noroeste 0 -- -- 72
2017-10-28 10:00:00 18.1 10 Noroeste 15 Noroeste 0 -- -- 76
2017-10-28 09:00:00 16.1 12 Noroeste 17 Noroeste 0 -- -- 76
2017-10-28 08:00:00 17.1 10 Noroeste 18 Noroeste 0 -- -- 74
2017-10-28 07:00:00 18.3 12 Noroeste 19 Oeste 0 -- -- 78
2017-10-28 06:00:00 17.7 11 Oeste 16 Oeste 0 -- -- 67
2017-10-28 05:00:00 17.6 13 Noroeste 19 Oeste 0 -- -- 54
2017-10-28 04:00:00 16.9 7 Noroeste 12 Oeste 0 -- -- 57
2017-10-28 03:00:00 17.3 4 Noroeste 14 Oeste 0 -- -- 57
2017-10-28 02:00:00 18.1 8 Oeste 16 Oeste 0 -- -- 56
2017-10-28 01:00:00 19.1 13 Oeste 19 Oeste 0 -- -- 59
2017-10-28 00:00:00 18.2 17 Oeste 23 Oeste 0 -- -- 70
2017-10-27 23:00:00 18.7 9 Oeste 15 Oeste 0 -- -- 75
2017-10-27 22:00:00 19 7 Oeste 13 Oeste 0 -- -- 88
2017-10-27 21:00:00 20.1 10 Sudoeste 14 Sur 0 -- -- 87
2017-10-27 20:00:00 21.5 13 Sur 16 Sur 0 -- -- 86
2017-10-27 19:00:00 21.8 14 Sudeste 18 Sudeste 0 -- -- 84
2017-10-27 18:00:00 22 15 Sudeste 19 Sudeste 0 -- -- 82
2017-10-27 17:00:00 22 17 Sudeste 20 Sudeste 0 -- -- 82
2017-10-27 16:00:00 22 16 Sudeste 18 Sudeste 0 -- -- 81
2017-10-27 15:00:00 22.3 15 Sudeste 18 Sudeste 0 -- -- 78
2017-10-27 14:00:00 22.2 12 Sudeste 13 Sudeste 0 -- -- 73
2017-10-27 13:00:00 22.7 9 Este 12 Este 0 -- -- 66
2017-10-27 12:00:00 23 8 Norte 12 Norte 0 -- -- 41
2017-10-27 11:00:00 19.6 6 Norte 17 Noroeste 0 -- -- 50
2017-10-27 10:00:00 16.2 9 Noroeste 20 Oeste 0 -- -- 50
2017-10-27 09:00:00 14.7 14 Noroeste 21 Noroeste 0 -- -- 59
2017-10-27 08:00:00 14.5 8 Noroeste 23 Oeste 0 -- -- 59
2017-10-27 07:00:00 14.4 18 Noroeste 23 Oeste 0 -- -- 62
2017-10-27 06:00:00 15.3 18 Oeste 22 Oeste 0 -- -- 62
2017-10-27 05:00:00 15.4 16 Oeste 19 Noroeste 0 -- -- 67
2017-10-27 04:00:00 16 11 Noroeste 21 Noroeste 0 -- -- 68
2017-10-27 03:00:00 16.9 15 Noroeste 23 Oeste 0 -- -- 69
2017-10-27 02:00:00 16.8 17 Oeste 22 Oeste 0 -- -- 69
2017-10-27 01:00:00 17.1 12 Noroeste 15 Oeste 0 -- -- 76
2017-10-27 00:00:00 17.4 12 Noroeste 19 Oeste 0 -- -- 82
2017-10-26 23:00:00 18.5 14 Oeste 18 Oeste 0 -- -- 82
2017-10-26 22:00:00 18.8 13 Oeste 15 Oeste 0 -- -- 89
2017-10-26 21:00:00 20.5 8 Noroeste 10 Norte 0 -- -- 88
2017-10-26 20:00:00 21.6 6 Norte 11 Norte 0 -- -- 86
2017-10-26 19:00:00 22.8 7 Nordeste 10 Nordeste 0 -- -- 81
2017-10-26 18:00:00 23 8 Nordeste 14 Este 0 -- -- 81
2017-10-26 17:00:00 22.7 10 Este 16 Este 0 -- -- 81
2017-10-26 16:00:00 23 13 Este 17 Nordeste 0 -- -- 76
2017-10-26 15:00:00 23.3 15 Este 18 Este 0 -- -- 74
2017-10-26 14:00:00 23.5 13 Este 15 Este 0 -- -- 69
2017-10-26 13:00:00 24.1 8 Nordeste 12 Nordeste 0 -- -- 64
2017-10-26 12:00:00 23.4 3 Norte 13 Noroeste 0 -- -- 48
2017-10-26 11:00:00 19.4 12 Noroeste 17 Noroeste 0 -- -- 57
2017-10-26 10:00:00 16.5 9 Noroeste 22 Noroeste 0 -- -- 64
2017-10-26 09:00:00 15 18 Noroeste 23 Noroeste 0 -- -- 67
2017-10-26 08:00:00 14.5 19 Noroeste 23 Noroeste 0 -- -- 69
2017-10-26 07:00:00 14.8 13 Noroeste 20 Oeste 0 -- -- 70
2017-10-26 06:00:00 14.9 18 Noroeste 26 Oeste 0 -- -- 69
2017-10-26 05:00:00 16 18 Oeste 23 Oeste 0 -- -- 66
2017-10-26 04:00:00 16.2 15 Oeste 19 Oeste 0 -- -- 69
2017-10-26 03:00:00 16.5 16 Noroeste 23 Oeste 0 -- -- 70
2017-10-26 02:00:00 17.1 17 Oeste 22 Oeste 0 -- -- 71
2017-10-26 01:00:00 17.7 11 Oeste 16 Oeste 0 -- -- 73
2017-10-26 00:00:00 18.1 7 Noroeste 19 Oeste 0 -- -- 77